Time;durP1;ratioP1;P1;durP2;ratioP2;P2;SDS_P1;SDS_P2;PMS_P1;PMS_P2;Temp;Humidity;BMP_temperature;BMP_pressure;BME280_temperature;BME280_humidity;BME280_pressure;Samples;Min_cycle;Max_cycle;Signal;HPM_P1;HPM_P2
2022/07/11 00:05:58;;;;;;;2.10;0.60;;;;;;;;;;21153069;28;20474;-73
2022/07/11 00:16:00;;;;;;;1.30;0.63;;;;;;;;;;21135109;28;20209;-73
2022/07/11 00:26:02;;;;;;;0.93;0.80;;;;;;;;;;21150041;28;20219;-73
2022/07/11 00:36:04;;;;;;;1.57;0.50;;;;;;;;;;21130381;28;20211;-72
2022/07/11 00:46:07;;;;;;;0.93;0.67;;;;;;;;;;21115862;28;20225;-72
2022/07/11 00:56:10;;;;;;;0.93;0.60;;;;;;;;;;21163583;28;20207;-73
2022/07/11 01:06:12;;;;;;;2.57;0.43;;;;;;;;;;21130049;28;20226;-73
2022/07/11 01:16:16;;;;;;;0.93;0.57;;;;;;;;;;21160067;28;20203;-73
2022/07/11 01:26:18;;;;;;;1.20;0.67;;;;;;;;;;21108952;28;20757;-73
2022/07/11 01:36:20;;;;;;;0.50;0.47;;;;;;;;;;21126757;28;20578;-72
2022/07/11 01:46:22;;;;;;;1.50;0.53;;;;;;;;;;21133525;28;20653;-72
2022/07/11 01:56:27;;;;;;;1.10;0.60;;;;;;;;;;21149536;28;20212;-72
2022/07/11 02:06:47;;;;;;;1.33;0.60;;;;;;;;;;21150802;28;20222;-73
2022/07/11 02:16:49;;;;;;;1.23;0.70;;;;;;;;;;21153261;28;20623;-72
2022/07/11 02:26:50;;;;;;;1.53;0.70;;;;;;;;;;21136735;28;20298;-73
2022/07/11 02:36:53;;;;;;;1.43;0.80;;;;;;;;;;21155655;28;20222;-73
2022/07/11 02:46:55;;;;;;;0.63;0.50;;;;;;;;;;21132786;27;20276;-71
2022/07/11 02:56:56;;;;;;;1.00;0.50;;;;;;;;;;21148874;28;20251;-73
2022/07/11 03:06:59;;;;;;;1.00;0.63;;;;;;;;;;21139818;28;20264;-72
2022/07/11 03:17:01;;;;;;;3.20;0.60;;;;;;;;;;21187310;28;20240;-73
2022/07/11 03:27:03;;;;;;;0.70;0.47;;;;;;;;;;21119284;28;20223;-73
2022/07/11 03:37:05;;;;;;;1.27;0.70;;;20.60;99.90;;;;;;21115453;28;20636;-74
2022/07/11 03:47:08;;;;;;;2.43;0.80;;;;;;;;;;21162212;28;20219;-73
2022/07/11 03:57:10;;;;;;;1.00;0.60;;;;;;;;;;21112966;28;20260;-74
2022/07/11 04:07:12;;;;;;;1.17;0.77;;;;;;;;;;21137163;28;20226;-72
2022/07/11 04:17:14;;;;;;;1.00;0.60;;;;;;;;;;21056859;28;20215;-73
2022/07/11 04:27:15;;;;;;;0.53;0.50;;;20.00;99.90;;;;;;21041160;28;20220;-73
2022/07/11 04:37:17;;;;;;;1.30;0.60;;;;;;;;;;21040120;28;20240;-73
2022/07/11 04:47:19;;;;;;;1.47;0.70;;;;;;;;;;21039623;28;20258;-73
2022/07/11 04:57:21;;;;;;;1.80;0.70;;;;;;;;;;21038590;28;20207;-73
2022/07/11 05:07:23;;;;;;;1.37;0.80;;;;;;;;;;21104600;28;20226;-73
2022/07/11 05:17:25;;;;;;;2.47;0.80;;;;;;;;;;21115611;28;20568;-73
2022/07/11 05:27:27;;;;;;;1.23;0.73;;;;;;;;;;21092035;28;20256;-73
2022/07/11 05:37:29;;;;;;;1.27;0.90;;;;;;;;;;21102376;28;20255;-72
2022/07/11 05:47:34;;;;;;;1.10;0.60;;;;;;;;;;21135154;28;20290;-73
2022/07/11 05:57:36;;;;;;;3.70;0.80;;;;;;;;;;21137977;28;20214;-73
2022/07/11 06:17:58;;;;;;;1.33;0.60;;;;;;;;;;21138735;28;20750;-73
2022/07/11 06:28:01;;;;;;;1.53;0.80;;;;;;;;;;21119449;28;20699;-73
2022/07/11 06:38:03;;;;;;;2.03;0.80;;;;;;;;;;21119182;28;20214;-71
2022/07/11 06:48:05;;;;;;;2.00;1.03;;;;;;;;;;21133955;28;20267;-72
2022/07/11 06:58:08;;;;;;;1.53;0.73;;;;;;;;;;21133725;28;20192;-71
2022/07/11 07:08:11;;;;;;;1.43;0.60;;;;;;;;;;21149133;28;20358;-72
2022/07/11 07:18:20;;;;;;;3.60;0.60;;;;;;;;;;21133583;28;20195;-71
2022/07/11 07:28:22;;;;;;;2.23;0.90;;;;;;;;;;21131331;28;20638;-71
2022/07/11 07:38:24;;;;;;;1.47;0.60;;;;;;;;;;21130077;28;20192;-71
2022/07/11 07:48:26;;;;;;;1.57;0.80;;;;;;;;;;21129835;28;20271;-71
2022/07/11 07:58:28;;;;;;;1.20;0.67;;;;;;;;;;21128379;28;20278;-70
2022/07/11 08:08:30;;;;;;;0.93;0.60;;;;;;;;;;21127645;28;20259;-70
2022/07/11 08:18:32;;;;;;;1.95;0.70;;;;;;;;;;21127616;28;20208;-71
2022/07/11 08:28:34;;;;;;;0.75;0.50;;;;;;;;;;21126330;28;20246;-70
2022/07/11 08:38:36;;;;;;;1.02;0.50;;;;;;;;;;21109023;28;20267;-72
2022/07/11 08:48:42;;;;;;;1.10;0.60;;;;;;;;;;21028403;22;20220;-73
2022/07/11 08:58:45;;;;;;;5.85;0.93;;;22.40;99.90;;;;;;20776354;28;20373;-73
2022/07/11 09:08:47;;;;;;;0.40;0.28;;;;;;;;;;20775739;28;20221;-74
2022/07/11 09:18:49;;;;;;;0.60;0.55;;;;;;;;;;20808025;28;20773;-76
2022/07/11 09:29:03;;;;;;;1.38;0.30;;;22.60;99.90;;;;;;20790925;28;20224;-76
2022/07/11 09:39:07;;;;;;;0.43;0.30;;;23.20;99.90;;;;;;20792015;28;20207;-77
2022/07/11 09:49:09;;;;;;;0.50;0.35;;;22.90;99.90;;;;;;20789865;28;20605;-74
2022/07/11 09:59:15;;;;;;;0.30;0.28;;;22.60;99.90;;;;;;20789686;28;20203;-76
2022/07/11 10:09:17;;;;;;;0.52;0.40;;;;;;;;;;20791532;28;20259;-77
2022/07/11 10:19:26;;;;;;;0.77;0.40;;;;;;;;;;20770835;28;20592;-76
2022/07/11 10:29:39;;;;;;;0.52;0.32;;;24.30;99.90;;;;;;20799503;28;20572;-75
2022/07/11 10:39:57;;;;;;;3.33;0.60;;;24.10;99.90;;;;;;20817807;28;20226;-76
2022/07/11 10:50:02;;;;;;;0.75;0.60;;;24.10;99.90;;;;;;20800816;28;20605;-76
2022/07/11 11:00:04;;;;;;;2.03;0.60;;;;;;;;;;20832898;28;20278;-77
2022/07/11 11:10:07;;;;;;;1.70;0.80;;;;;;;;;;20816021;28;20217;-75
2022/07/11 11:20:31;;;;;;;2.63;0.75;;;24.50;99.90;;;;;;20798920;28;20251;-74
2022/07/11 11:30:33;;;;;;;2.33;1.10;;;;;;;;;;20797957;28;20270;-75
2022/07/11 11:40:35;;;;;;;1.13;0.80;;;;;;;;;;20796630;28;20254;-76
2022/07/11 11:50:37;;;;;;;1.70;0.98;;;;;;;;;;20796780;28;20285;-74
2022/07/11 12:00:39;;;;;;;1.77;0.90;;;;;;;;;;20812510;28;20207;-74
2022/07/11 12:10:41;;;;;;;1.10;0.70;;;;;;;;;;20811053;28;20240;-75
2022/07/11 12:20:44;;;;;;;1.40;0.90;;;25.20;98.00;;;;;;20793731;28;20216;-77
2022/07/11 12:30:46;;;;;;;3.92;1.20;;;;;;;;;;20810406;28;20221;-75
2022/07/11 12:41:17;;;;;;;1.80;1.23;;;26.00;93.20;;;;;;20792470;28;20212;-75
2022/07/11 12:51:29;;;;;;;1.25;1.00;;;;;;;;;;20787677;28;20635;-75
2022/07/11 13:01:32;;;;;;;2.20;1.08;;;;;;;;;;20791333;28;20213;-74
2022/07/11 13:11:36;;;;;;;2.92;1.20;;;;;;;;;;20790807;28;20237;-74
2022/07/11 13:21:37;;;;;;;1.50;1.00;;;;;;;;;;20791761;28;20213;-75
2022/07/11 13:31:39;;;;;;;1.65;0.80;;;;;;;;;;20789390;28;20216;-74
2022/07/11 13:41:42;;;;;;;1.45;0.80;;;;;;;;;;20804703;28;20229;-74
2022/07/11 13:51:44;;;;;;;2.42;1.00;;;;;;;;;;20787613;28;20226;-74
2022/07/11 14:01:53;;;;;;;1.73;0.90;;;;;;;;;;20762524;28;20748;-73
2022/07/11 14:11:55;;;;;;;0.90;0.63;;;27.20;95.50;;;;;;20804229;28;20229;-75
2022/07/11 14:21:57;;;;;;;3.35;1.00;;;;;;;;;;20819216;28;20257;-74
2022/07/11 14:31:59;;;;;;;3.05;0.85;;;27.30;91.10;;;;;;20801987;28;20694;-73
2022/07/11 14:42:01;;;;;;;0.82;0.70;;;27.60;91.00;;;;;;20785395;28;20259;-73
2022/07/11 14:52:03;;;;;;;1.40;0.80;;;;;;;;;;20956492;22;20235;-73
2022/07/11 15:02:05;;;;;;;1.25;0.80;;;27.80;90.80;;;;;;21049041;28;20272;-74
2022/07/11 15:12:28;;;;;;;1.27;0.82;;;;;;;;;;21047835;28;20269;-75
2022/07/11 15:22:29;;;;;;;0.80;0.60;;;;;;;;;;21050022;28;20216;-75
2022/07/11 15:32:31;;;;;;;1.25;0.80;;;;;;;;;;21045742;28;20249;-74
2022/07/11 15:42:33;;;;;;;1.40;0.65;;;;;;;;;;21045680;28;20205;-75
2022/07/11 15:52:35;;;;;;;2.53;0.90;;;;;;;;;;21044660;28;20293;-75
2022/07/11 16:02:37;;;;;;;1.33;0.70;;;;;;;;;;21032114;28;20218;-75
2022/07/11 16:12:39;;;;;;;1.00;0.73;;;;;;;;;;21040017;28;20268;-76
2022/07/11 16:22:41;;;;;;;2.60;0.90;;;;;;;;;;21056077;28;20207;-75
2022/07/11 16:32:44;;;;;;;1.13;0.73;;;;;;;;;;21056309;28;20697;-75
2022/07/11 16:53:07;;;;;;;2.50;0.60;;;;;;;;;;21041757;28;20269;-75
2022/07/11 17:03:09;;;;;;;1.85;0.60;;;27.90;84.50;;;;;;21037402;28;20276;-75
2022/07/11 17:13:11;;;;;;;2.00;0.85;;;;;;;;;;21021139;28;20199;-75
2022/07/11 17:23:13;;;;;;;0.43;0.40;;;;;;;;;;21021052;28;20223;-76
2022/07/11 17:33:16;;;;;;;2.70;0.50;;;;;;;;;;21051017;28;20223;-76
2022/07/11 17:43:18;;;;;;;0.40;0.32;;;;;;;;;;21019436;28;20220;-76
2022/07/11 17:53:22;;;;;;;0.55;0.40;;;26.30;94.40;;;;;;21050212;28;20221;-76
2022/07/11 18:03:24;;;;;;;0.60;0.45;;;;;;;;;;21029715;28;20273;-76
2022/07/11 18:13:26;;;;;;;0.70;0.50;;;;;;;;;;20995629;28;20282;-76
2022/07/11 18:23:28;;;;;;;1.73;0.55;;;;;;;;;;21012400;28;20224;-75
2022/07/11 18:33:30;;;;;;;4.07;0.77;;;;;;;;;;21013684;28;20216;-76
2022/07/11 18:43:58;;;;;;;2.75;0.52;;;;;;;;;;21013521;28;20215;-75
2022/07/11 18:53:55;;;;;;;3.47;0.93;;;25.80;97.70;;;;;;20935954;28;3647084;-76
2022/07/11 19:03:58;;;;;;;1.73;0.90;;;;;;;;;;21034840;28;20277;-76
2022/07/11 19:14:00;;;;;;;2.38;0.77;;;;;;;;;;20969713;28;20266;-76
2022/07/11 19:24:02;;;;;;;1.23;0.50;;;;;;;;;;20953159;28;20276;-76
2022/07/11 19:34:06;;;;;;;1.00;0.60;;;;;;;;;;20952550;28;20207;-76
2022/07/11 19:44:08;;;;;;;0.60;0.50;;;24.70;99.90;;;;;;20954387;28;20279;-76
2022/07/11 20:04:31;;;;;;;2.03;0.68;;;;;;;;;;20954258;28;20222;-76
2022/07/11 20:14:32;;;;;;;0.85;0.60;;;;;;;;;;20946870;28;20207;-76
2022/07/11 20:24:34;;;;;;;0.57;0.47;;;;;;;;;;20951129;28;20216;-76
2022/07/11 20:34:36;;;;;;;1.88;0.70;;;;;;;;;;20949543;28;20211;-76
2022/07/11 20:44:38;;;;;;;0.45;0.40;;;;;;;;;;20948782;28;20220;-76
2022/07/11 20:54:40;;;;;;;1.67;0.50;;;;;;;;;;20948826;28;20228;-76
2022/07/11 21:04:42;;;;;;;0.93;0.45;;;;;;;;;;20954088;28;20274;-76
2022/07/11 21:14:44;;;;;;;0.30;0.30;;;;;;;;;;20970191;28;20222;-76
2022/07/11 21:24:46;;;;;;;0.47;0.38;;;;;;;;;;20954713;28;20248;-76
2022/07/11 21:34:48;;;;;;;0.32;0.30;;;;;;;;;;20952803;28;20203;-76
2022/07/11 21:44:50;;;;;;;0.50;0.30;;;;;;;;;;20954266;28;20748;-76
2022/07/11 21:54:52;;;;;;;0.68;0.40;;;;;;;;;;20953527;28;20227;-76
2022/07/11 22:04:54;;;;;;;1.15;0.50;;;;;;;;;;20953272;28;20214;-76
2022/07/11 22:14:56;;;;;;;1.95;0.70;;;;;;;;;;20968526;28;20259;-76
2022/07/11 22:24:58;;;;;;;1.75;0.60;;;;;;;;;;20962766;28;20602;-77
2022/07/11 22:35:00;;;;;;;0.63;0.40;;;;;;;;;;20967042;28;20212;-76
2022/07/11 22:45:01;;;;;;;0.70;0.30;;;;;;;;;;20965898;28;20222;-76
2022/07/11 22:55:03;;;;;;;2.80;0.73;;;;;;;;;;20965854;28;20277;-76
2022/07/11 23:05:05;;;;;;;3.05;0.70;;;;;;;;;;20964194;28;20218;-76
2022/07/11 23:15:07;;;;;;;1.13;0.45;;;;;;;;;;20981016;28;20253;-76
2022/07/11 23:25:10;;;;;;;1.65;0.40;;;;;;;;;;20978645;28;20232;-76
2022/07/11 23:35:12;;;;;;;0.30;0.30;;;22.70;99.90;;;;;;20961777;28;20686;-76
2022/07/11 23:45:14;;;;;;;0.57;0.30;;;;;;;;;;20961607;28;20219;-76
2022/07/11 23:55:15;;;;;;;0.95;0.40;;;;;;;;;;20960940;28;20226;-76
